AM Online

All Retail New Car Finance Offers

Manufacturers' offers for retail car buyers, updated monthly.

Information is provided as guidance only. AM does not accept responsibility for errors.

Alfa Romeo

MODEL FINANCE TYPE DEPOSIT TERM MONTHLY PAYMENT FINAL PAYMENT APR OFFER ENDS MILEAGE EXCESS
Stelvio 2.2 TD 210hp AWD Speciale PCP £13,210.00 37 £299 £18,881 0.00% 30/06/2019 15,000 12p
Giulia 2.0 TP 280hp Veloce PCP £11,884 37 £299 £15,042 0.00% 30/06/2019 15,000 9p
Giulietta 1.4 TB 120hp Sport PCP £5,501 37 £199 £7,340 0.00% 30/06/19 10,000 6p
4C Spider 1750cc TBi 240hp TCT PCP £9,999 48 £499 £24,762 4.90% 30/06/19 6,000 6p

Smart

MODEL FINANCE TYPE DEPOSIT TERM MONTHLY PAYMENT FINAL PAYMENT APR OFFER ENDS MILEAGE EXCESS
Forfour UrbanShadow71hp manual PCH £1,252.00 48 £169.00 N/A N/A 30/06/2019 7,000 N/A
Fortwo Coupe Prime 71hp with optiojnal matt body panels PCP £137.59 48 £179.00 £3,960.00 2.00% 30/06/2019 7,000 6p
Fortwo Cabrio Prime 71 hp (52 kW), auto with optional metallic body panels PCP £305.70 48 £214.00 £5,625.00 2.00% 30/06/2019 7,000 6p
Fortwo EQ Coupe Prime 82hp single speed PCP £2,471.81 48 £239.00 £7,225.00 5.70% 30/06/2019 7,000 6p
Forfour EQ prime 82hp (60kw), single speed PCP £2,472.25 48 £249 £7,100.00 5.70% 30/06/2019 7,000 6p

Toyota

MODEL FINANCE TYPE DEPOSIT TERM MONTHLY PAYMENT FINAL PAYMENT APR OFFER ENDS MILEAGE EXCESS
AYGO x-trend PCP £2,906 42 £129 £4,770 0.00% 30/06/2019 8,000 8p
Yaris Icon Tech PCP £2,754 42 £169 £5,152.50 0.00% 30/06/2019 8,000 8p
Yaris Hybrid Icon Tech PCP £3,901 42 £189 £7,110 0.00% 30/06/2019 8,000 8p
Corolla Hybrid Design PCP £7,261 42 £229 £9,976 0.00% 30/06/2019 8,000 8p
Corolla Hybrid Touring Sports Design PCP £6,752 42 £239 £11,094 0.00% 30/06/2019 8,000 8p
C-HR Design PCP £6,121 42 £249 £13,117.50 0.00% 30/06/2019 8,000 10p
C-HR Hybrid Design PCP £6,494 24 £249 £15,244.13 0.00% 30/06/2019 8,000 10p
RAV4 Hybrid Design PCP £7,851 24 £279 £17,722.50 0.00% 30/06/2019 8,000 12p
GT86 Club Series Blue Edition PCP £8,855 42 £269 £11,835 4.90% 30/06/2019 8,000 12p
Prius Plus Business Edition PCP £5,594 42 £299 £12,802.50 4.90% 30/06/2019 8,000 9p
Prius Plug-in Business Edition Plus PCP £7,990 42 £349 £13,095 4.90% 30/06/2019 8,000 9p
Prius+ Icon PCP £2,935 42 £339 £14,310 4.90% 30/06/2019 8,000 9p
Land Cruiser Icon PCP £17,257 42 £349 £23,130 4.90%   8,000 12p